Shelley, Idaho
Current Conditions -  °F | °C
As of 2:53 AM on Sunday 21 Dec 2014 (Local Time) from KIDA Reporting Station
Overcast Overcast  
Wind Chill: 24°   Ceiling: 500
Heat Index: 35°   Visibility: 10mi
Dew Point: 33°   Wind: 22mph
Humidity: 92%   Direction: 200°SSW
Pressure: 29.84"   Gusts: 28mph
Location:  43.38°N, 112.12°W
Report Text: KIDA 210953Z AUTO 20019G24KT 10SM OVC005 02/01 A2984 RMK AO2 UPB22E53SNE22B30E40 SLP114 P0001 T00170006
Loading
Personal Weather Stations






























Interactive Weather Map New forecast layout! Learn more

10-Day Weather Forecast

Advertisements
Track Severe Weather on mobile